createdAt,value
2022-09-27T00:03:14.165Z,95205.00
2022-09-27T00:08:15.016Z,95207.00
2022-09-27T00:13:16.139Z,95197.00
2022-09-27T00:18:17.016Z,95207.00
2022-09-27T00:23:18.119Z,95204.00
2022-09-27T00:28:19.000Z,95204.00
2022-09-27T00:33:20.210Z,95204.00
2022-09-27T00:38:21.088Z,95204.00
2022-09-27T00:43:23.258Z,95200.00
2022-09-27T00:48:28.396Z,95194.00
2022-09-27T00:53:36.884Z,95193.00
2022-09-27T00:58:46.077Z,95191.00
2022-09-27T01:03:55.113Z,95192.00
2022-09-27T01:08:55.987Z,95188.00
2022-09-27T01:16:46.654Z,95192.00
2022-09-27T01:22:07.230Z,95187.00
2022-09-27T01:29:07.283Z,95186.00
2022-09-27T01:37:16.478Z,95190.00
2022-09-27T01:42:26.465Z,95196.00
2022-09-27T01:47:42.358Z,95200.00
2022-09-27T01:53:16.244Z,95197.00
2022-09-27T01:58:41.491Z,95197.00
2022-09-27T02:03:48.643Z,95195.00
2022-09-27T02:09:38.499Z,95201.00
2022-09-27T02:15:04.472Z,95205.00
2022-09-27T02:20:49.411Z,95209.00
2022-09-27T02:26:05.813Z,95210.00
2022-09-27T02:31:07.163Z,95217.00
2022-09-27T02:36:10.908Z,95223.00
2022-09-27T02:41:17.305Z,95225.00
2022-09-27T02:48:24.955Z,95240.00
2022-09-27T02:53:44.497Z,95252.00
2022-09-27T03:00:47.844Z,95258.00
2022-09-27T03:07:19.776Z,95259.00
2022-09-27T03:12:27.330Z,95276.00
2022-09-27T03:17:28.366Z,95279.00
2022-09-27T03:24:00.333Z,95286.00
2022-09-27T03:29:02.711Z,95288.00
2022-09-27T03:34:03.875Z,95294.00
2022-09-27T03:39:05.161Z,95292.00
2022-09-27T03:44:06.410Z,95295.00
2022-09-27T03:49:07.322Z,95285.00
2022-09-27T03:54:08.513Z,95303.00
2022-09-27T03:59:10.438Z,95309.00
2022-09-27T04:04:39.376Z,95302.00
2022-09-27T04:09:44.756Z,95306.00
2022-09-27T04:14:45.981Z,95305.00
2022-09-27T04:20:06.210Z,95313.00
2022-09-27T04:25:09.276Z,95309.00
2022-09-27T04:30:12.374Z,95316.00
2022-09-27T04:35:58.314Z,95311.00
2022-09-27T04:41:02.828Z,95317.00
2022-09-27T04:46:07.184Z,95315.00
2022-09-27T04:51:09.803Z,95317.00
2022-09-27T04:56:11.907Z,95323.00
2022-09-27T05:01:13.302Z,95327.00
2022-09-27T05:07:48.203Z,95331.00
2022-09-27T05:12:59.063Z,95343.00
2022-09-27T05:18:00.029Z,95346.00
2022-09-27T05:23:53.939Z,95347.00
2022-09-27T05:28:54.767Z,95351.00
2022-09-27T05:33:56.231Z,95359.00
2022-09-27T05:39:57.405Z,95368.00
2022-09-27T05:44:59.522Z,95372.00
2022-09-27T05:50:01.315Z,95376.00
2022-09-27T05:55:04.217Z,95373.00
2022-09-27T06:00:07.022Z,95385.00
2022-09-27T06:05:41.030Z,95393.00
2022-09-27T06:11:05.429Z,95405.00
2022-09-27T06:16:10.758Z,95417.00
2022-09-27T06:21:12.852Z,95421.00
2022-09-27T06:26:16.534Z,95433.00
2022-09-27T06:32:39.151Z,95440.00
2022-09-27T06:37:55.287Z,95455.00
2022-09-27T06:43:08.505Z,95458.00
2022-09-27T06:48:38.778Z,95466.00
2022-09-27T06:53:48.677Z,95475.00
2022-09-27T06:59:08.598Z,95474.00
2022-09-27T07:05:09.609Z,95479.00
2022-09-27T07:10:33.237Z,95482.00
2022-09-27T07:15:36.494Z,95491.00
2022-09-27T07:20:40.488Z,95496.00
2022-09-27T07:25:41.891Z,95499.00
2022-09-27T07:30:43.314Z,95498.00
2022-09-27T07:35:44.205Z,95497.00
2022-09-27T07:40:45.551Z,95501.00
2022-09-27T07:45:46.925Z,95499.00
2022-09-27T07:51:10.107Z,95502.00
2022-09-27T07:56:39.715Z,95505.00
2022-09-27T08:01:41.833Z,95509.00
2022-09-27T08:06:42.915Z,95509.00
2022-09-27T08:11:44.882Z,95513.00
2022-09-27T08:16:46.918Z,95512.00
2022-09-27T08:22:07.365Z,95517.00
2022-09-27T08:27:29.691Z,95529.00
2022-09-27T08:32:33.073Z,95524.00
2022-09-27T08:37:35.838Z,95534.00
2022-09-27T08:46:03.169Z,95532.00
2022-09-27T08:51:10.940Z,95528.00
2022-09-27T08:56:14.464Z,95533.00
2022-09-27T09:01:22.986Z,95540.00
2022-09-27T09:08:43.573Z,95543.00
2022-09-27T09:17:28.160Z,95539.00
2022-09-27T09:23:22.086Z,95540.00
2022-09-27T09:29:19.631Z,95545.00
2022-09-27T09:34:28.875Z,95558.00
2022-09-27T09:39:38.289Z,95550.00
2022-09-27T09:44:53.404Z,95557.00
2022-09-27T09:50:00.890Z,95553.00
2022-09-27T09:55:13.396Z,95555.00
2022-09-27T10:00:17.125Z,95563.00
2022-09-27T10:05:21.924Z,95551.00
2022-09-27T10:10:27.377Z,95549.00
2022-09-27T10:16:17.113Z,95539.00
2022-09-27T10:21:24.879Z,95540.00
2022-09-27T10:26:26.909Z,95539.00
2022-09-27T10:31:36.720Z,95527.00
2022-09-27T10:37:22.017Z,95526.00
2022-09-27T10:42:38.114Z,95526.00
2022-09-27T10:47:41.353Z,95519.00
2022-09-27T10:53:15.028Z,95523.00
2022-09-27T10:58:38.323Z,95517.00
2022-09-27T11:03:48.544Z,95508.00
2022-09-27T11:08:52.101Z,95502.00
2022-09-27T11:14:18.708Z,95502.00
2022-09-27T11:20:30.669Z,95504.00
2022-09-27T11:25:59.306Z,95508.00
2022-09-27T11:34:54.018Z,95500.00
2022-09-27T11:43:04.418Z,95490.00
2022-09-27T11:50:10.848Z,95492.00
2022-09-27T11:56:49.956Z,95486.00
2022-09-27T12:11:52.569Z,95478.00
2022-09-27T12:16:57.024Z,95489.00
2022-09-27T12:22:04.227Z,95511.00
2022-09-27T12:27:22.521Z,95487.00
2022-09-27T12:32:31.109Z,95477.00
2022-09-27T12:37:56.677Z,95472.00
2022-09-27T12:43:47.309Z,95466.00
2022-09-27T12:49:58.991Z,95474.00
2022-09-27T13:00:51.140Z,95470.00
2022-09-27T13:10:46.800Z,95475.00
2022-09-27T13:16:02.584Z,95463.00
2022-09-27T13:21:09.419Z,95451.00
2022-09-27T13:26:43.876Z,95455.00
2022-09-27T13:32:24.422Z,95460.00
2022-09-27T13:39:20.541Z,95454.00
2022-09-27T13:51:35.599Z,95467.00
2022-09-27T13:56:57.855Z,95469.00
2022-09-27T14:02:26.893Z,95467.00
2022-09-27T14:07:41.291Z,95461.00
2022-09-27T14:12:43.659Z,95464.00
2022-09-27T14:17:46.631Z,95466.00
2022-09-27T14:22:53.760Z,95462.00
2022-09-27T14:27:57.726Z,95465.00
2022-09-27T14:33:04.059Z,95456.00
2022-09-27T14:38:44.493Z,95449.00
2022-09-27T14:43:53.092Z,95448.00
2022-09-27T14:48:55.141Z,95447.00
2022-09-27T14:54:00.308Z,95458.00
2022-09-27T14:59:13.135Z,95463.00
2022-09-27T15:04:14.589Z,95463.00
2022-09-27T15:09:18.345Z,95476.00
2022-09-27T15:14:20.863Z,95488.00
2022-09-27T15:19:28.476Z,95488.00
2022-09-27T15:24:42.991Z,95483.00
2022-09-27T15:29:52.040Z,95485.00
2022-09-27T15:34:53.980Z,95497.00
2022-09-27T15:40:05.111Z,95500.00
2022-09-27T15:45:33.036Z,95504.00
2022-09-27T15:50:35.072Z,95490.00
2022-09-27T15:55:42.789Z,95487.00
2022-09-27T16:00:57.937Z,95497.00
2022-09-27T16:06:01.995Z,95507.00
2022-09-27T16:11:04.899Z,95502.00
2022-09-27T16:16:06.109Z,95502.00
2022-09-27T16:21:07.177Z,95510.00
2022-09-27T16:26:08.182Z,95512.00
2022-09-27T16:31:10.525Z,95505.00
2022-09-27T16:36:15.509Z,95516.00
2022-09-27T16:41:17.957Z,95532.00
2022-09-27T16:46:18.754Z,95515.00
2022-09-27T16:51:39.738Z,95524.00
2022-09-27T16:56:41.113Z,95520.00
2022-09-27T17:01:41.932Z,95513.00
2022-09-27T17:06:42.834Z,95512.00
2022-09-27T17:11:43.674Z,95510.00
2022-09-27T17:16:46.078Z,95521.00
2022-09-27T17:21:46.861Z,95518.00
2022-09-27T17:26:47.951Z,95528.00
2022-09-27T17:31:48.946Z,95528.00
2022-09-27T17:36:51.015Z,95533.00
2022-09-27T17:41:52.644Z,95537.00
2022-09-27T17:47:12.246Z,95533.00
2022-09-27T17:52:13.286Z,95533.00
2022-09-27T17:57:14.060Z,95522.00
2022-09-27T18:02:14.918Z,95527.00
2022-09-27T18:07:15.800Z,95533.00
2022-09-27T18:12:16.656Z,95549.00
2022-09-27T18:17:17.462Z,95543.00
2022-09-27T18:22:19.463Z,95555.00
2022-09-27T18:27:20.434Z,95548.00
2022-09-27T18:32:21.287Z,95552.00
2022-09-27T18:37:22.037Z,95555.00
2022-09-27T18:42:22.970Z,95555.00
2022-09-27T18:47:23.983Z,95552.00
2022-09-27T18:52:24.971Z,95534.00
2022-09-27T18:57:25.822Z,95536.00
2022-09-27T19:02:26.649Z,95537.00
2022-09-27T19:07:27.795Z,95531.00
2022-09-27T19:12:28.652Z,95530.00
2022-09-27T19:17:29.376Z,95537.00
2022-09-27T19:22:30.149Z,95535.00
2022-09-27T19:27:31.167Z,95534.00
2022-09-27T19:32:32.788Z,95526.00
2022-09-27T19:37:33.552Z,95520.00
2022-09-27T19:42:34.423Z,95517.00
2022-09-27T19:47:35.147Z,95513.00
2022-09-27T19:52:36.218Z,95521.00
2022-09-27T19:57:37.018Z,95519.00
2022-09-27T20:02:38.195Z,95513.00
2022-09-27T20:07:39.022Z,95518.00
2022-09-27T20:12:39.908Z,95514.00
2022-09-27T20:17:40.676Z,95508.00
2022-09-27T20:22:41.516Z,95495.00
2022-09-27T20:27:42.281Z,95491.00
2022-09-27T20:33:40.081Z,95487.00
2022-09-27T20:38:42.950Z,95485.00
2022-09-27T20:43:44.524Z,95473.00
2022-09-27T20:48:49.420Z,95463.00
2022-09-27T20:53:51.284Z,95464.00
2022-09-27T20:58:54.137Z,95455.00
2022-09-27T21:03:57.623Z,95443.00
2022-09-27T21:08:59.670Z,95451.00
2022-09-27T21:14:00.860Z,95443.00
2022-09-27T21:19:01.806Z,95442.00
2022-09-27T21:24:02.754Z,95429.00
2022-09-27T21:29:08.460Z,95427.00
2022-09-27T21:34:09.213Z,95433.00
2022-09-27T21:39:10.663Z,95428.00
2022-09-27T21:44:12.244Z,95411.00
2022-09-27T21:49:13.039Z,95403.00
2022-09-27T21:54:14.941Z,95400.00
2022-09-27T21:59:17.387Z,95388.00
2022-09-27T22:04:18.325Z,95381.00
2022-09-27T22:09:19.786Z,95367.00
2022-09-27T22:14:20.723Z,95362.00
2022-09-27T22:19:21.502Z,95358.00
2022-09-27T22:24:22.816Z,95355.00
2022-09-27T22:29:24.196Z,95353.00
2022-09-27T22:34:30.729Z,95340.00
2022-09-27T22:39:31.705Z,95333.00
2022-09-27T22:44:33.545Z,95330.00
2022-09-27T22:49:34.269Z,95317.00
2022-09-27T22:54:36.243Z,95313.00
2022-09-27T22:59:37.011Z,95300.00
2022-09-27T23:04:38.564Z,95291.00
2022-09-27T23:09:39.621Z,95276.00
2022-09-27T23:14:42.729Z,95260.00
2022-09-27T23:19:43.637Z,95267.00
2022-09-27T23:24:44.376Z,95260.00
2022-09-27T23:29:45.261Z,95241.00
2022-09-27T23:34:45.979Z,95241.00
2022-09-27T23:39:46.904Z,95237.00
2022-09-27T23:44:47.781Z,95232.00
2022-09-27T23:49:48.654Z,95219.00
2022-09-27T23:54:49.550Z,95210.00
2022-09-27T23:59:50.508Z,95210.00
